Whitney, Mississippi
Current Conditions -  °F | °C
As of 12:15 PM on Thursday 18 Dec 2014 (Local Time) from KRNV Reporting Station
Overcast Overcast  
Wind Chill:   Ceiling: 3800
Heat Index:   Visibility: 10mi
Dew Point:   Wind: 5mph
Humidity: 86%   Direction: 120°ESE
Pressure: 30.19"   Gusts: NA
Location:  33.8731°N, 90.5512°W
Report Text: KRNV 181815Z AUTO 12004KT 10SM OVC038 09/06 A3019 RMK AO2 T00860064
Loading
Personal Weather Stations






























Interactive Weather Map New forecast layout! Learn more

10-Day Weather Forecast

Advertisements
Track Severe Weather on mobile